Time;durP1;ratioP1;P1;durP2;ratioP2;P2;SDS_P1;SDS_P2;PMS_P1;PMS_P2;Temp;Humidity;BMP_temperature;BMP_pressure;BME280_temperature;BME280_humidity;BME280_pressure;Samples;Min_cycle;Max_cycle;Signal;HPM_P1;HPM_P2
2023/10/17 00:01:33;;;;;;;12.82;7.88;;;7.10;99.90;;;;;;4879499;29;20056;-77
2023/10/17 00:04:14;;;;;;;11.07;8.18;;;5.50;99.90;;;;;;4894168;29;20139;-76
2023/10/17 00:06:39;;;;;;;10.07;7.00;;;4.10;99.90;;;;;;4878776;29;20055;-77
2023/10/17 00:09:07;;;;;;;16.73;8.70;;;5.50;99.90;;;;;;4880453;29;20468;-74
2023/10/17 00:11:45;;;;;;;11.23;7.10;;;6.50;99.90;;;;;;4878623;29;20060;-77
2023/10/17 00:14:15;;;;;;;14.23;8.43;;;5.30;99.90;;;;;;4879968;29;20075;-76
2023/10/17 00:16:41;;;;;;;10.00;7.80;;;5.30;99.90;;;;;;4879726;29;20092;-78
2023/10/17 00:19:09;;;;;;;10.00;7.95;;;5.20;99.90;;;;;;4879691;29;20139;-77
2023/10/17 00:21:41;;;;;;;13.73;8.30;;;5.10;99.90;;;;;;4895361;29;20104;-74
2023/10/17 00:24:08;;;;;;;14.15;8.00;;;5.00;99.90;;;;;;4879223;29;20541;-73
2023/10/17 00:26:39;;;;;;;12.35;6.65;;;5.00;99.90;;;;;;4894553;29;20047;-73
2023/10/17 00:29:07;;;;;;;14.57;7.85;;;4.90;99.90;;;;;;4894504;29;20587;-77
2023/10/17 00:31:35;;;;;;;12.80;7.70;;;4.90;99.90;;;;;;4894781;29;20154;-75
2023/10/17 00:34:01;;;;;;;12.05;7.63;;;5.00;99.90;;;;;;4878921;29;20049;-76
2023/10/17 00:36:28;;;;;;;10.68;7.53;;;6.20;99.90;;;;;;4879097;29;20159;-76
2023/10/17 00:38:56;;;;;;;9.18;5.85;;;4.70;99.90;;;;;;4878692;29;20056;-75
2023/10/17 00:41:47;;;;;;;7.85;5.55;;;4.80;99.90;;;;;;4879540;29;20397;-74
2023/10/17 00:44:14;;;;;;;10.07;5.97;;;4.60;99.90;;;;;;4879779;29;20059;-75
2023/10/17 00:46:41;;;;;;;7.00;4.40;;;4.60;99.90;;;;;;4878667;29;20053;-73
2023/10/17 00:49:10;;;;;;;4.22;3.08;;;5.30;99.90;;;;;;4863372;29;20056;-73
2023/10/17 00:51:39;;;;;;;11.10;3.53;;;4.60;99.90;;;;;;4878060;29;20060;-74
2023/10/17 00:54:06;;;;;;;7.72;2.97;;;5.40;99.90;;;;;;4878409;29;20048;-75
2023/10/17 00:56:32;;;;;;;6.30;2.85;;;4.60;99.90;;;;;;4897805;29;20425;-76
2023/10/17 00:59:00;;;;;;;7.15;3.67;;;4.60;99.90;;;;;;4881587;29;20134;-76
2023/10/17 01:01:27;;;;;;;5.47;3.33;;;7.00;99.90;;;;;;4907325;29;20064;-73
2023/10/17 01:03:54;;;;;;;10.02;4.47;;;4.60;99.90;;;;;;4884120;29;20691;-74
2023/10/17 01:08:53;;;;;;;10.38;4.68;;;4.70;99.90;;;;;;4902254;29;20459;-76
2023/10/17 01:11:29;;;;;;;7.93;4.75;;;4.70;99.90;;;;;;4882722;29;20051;-77
2023/10/17 01:13:57;;;;;;;8.20;4.88;;;4.70;99.90;;;;;;4878906;29;20066;-76
2023/10/17 01:16:27;;;;;;;7.30;3.75;;;5.30;99.90;;;;;;4884490;29;20139;-76
2023/10/17 01:18:55;;;;;;;9.75;5.88;;;5.60;99.90;;;;;;4882786;29;20098;-76
2023/10/17 01:21:21;;;;;;;5.38;4.25;;;6.40;99.90;;;;;;4885447;29;20076;-72
2023/10/17 01:23:48;;;;;;;9.63;4.95;;;4.80;99.90;;;;;;4901705;29;20044;-73
2023/10/17 01:26:20;;;;;;;10.07;5.45;;;4.80;99.90;;;;;;4865280;29;20475;-74
2023/10/17 01:28:47;;;;;;;8.38;5.18;;;4.90;99.90;;;;;;4898168;29;20064;-75
2023/10/17 01:31:14;;;;;;;8.05;5.47;;;7.40;99.90;;;;;;4885199;29;20060;-76
2023/10/17 01:33:43;;;;;;;9.13;6.05;;;4.90;99.90;;;;;;4898503;29;20083;-75
2023/10/17 01:36:10;;;;;;;8.80;5.20;;;5.80;99.90;;;;;;4897828;29;20059;-76
2023/10/17 01:38:36;;;;;;;9.60;6.40;;;5.00;99.90;;;;;;4896882;29;20056;-77
2023/10/17 01:41:05;;;;;;;7.75;5.38;;;4.90;99.90;;;;;;4899297;29;20052;-74
2023/10/17 01:43:36;;;;;;;7.95;5.22;;;6.50;99.90;;;;;;4886223;29;20052;-75
2023/10/17 01:46:05;;;;;;;6.38;5.10;;;6.70;99.90;;;;;;4898441;29;20059;-76
2023/10/17 01:48:32;;;;;;;12.73;7.32;;;4.90;99.90;;;;;;4881967;29;20044;-74
2023/10/17 01:51:05;;;;;;;10.63;7.75;;;5.00;99.90;;;;;;4896561;29;20060;-74
2023/10/17 01:53:32;;;;;;;13.27;8.25;;;7.20;99.90;;;;;;4903112;29;20665;-76
2023/10/17 01:56:06;;;;;;;13.30;7.78;;;4.90;99.90;;;;;;4881684;29;20087;-74
2023/10/17 01:58:37;;;;;;;14.15;7.80;;;8.20;99.90;;;;;;4893083;29;20147;-75
2023/10/17 02:01:03;;;;;;;12.50;7.53;;;5.30;99.90;;;;;;4897111;29;20091;-75
2023/10/17 02:03:30;;;;;;;15.57;8.55;;;6.10;99.90;;;;;;4891339;29;20052;-77
2023/10/17 02:05:55;;;;;;;19.67;11.93;;;4.50;99.90;;;;;;4897513;29;20052;-76
2023/10/17 02:08:22;;;;;;;26.25;13.18;;;5.00;99.90;;;;;;4896393;29;20063;-75
2023/10/17 02:10:48;;;;;;;24.63;14.45;;;5.50;99.90;;;;;;4879018;29;20905;-79
2023/10/17 02:13:15;;;;;;;28.38;15.90;;;7.40;99.90;;;;;;4879241;29;20496;-75
2023/10/17 02:15:40;;;;;;;29.58;16.13;;;5.60;99.90;;;;;;4881497;29;20082;-76
2023/10/17 02:18:12;;;;;;;31.05;16.27;;;5.10;99.90;;;;;;4897264;29;20756;-76
2023/10/17 02:20:45;;;;;;;36.38;18.35;;;5.10;99.90;;;;;;4897519;29;20135;-73
2023/10/17 02:23:19;;;;;;;24.38;13.32;;;6.00;99.90;;;;;;4897281;29;20048;-74
2023/10/17 02:25:45;;;;;;;17.77;11.20;;;5.00;99.90;;;;;;4881286;29;20224;-74
2023/10/17 02:28:10;;;;;;;18.42;11.45;;;4.90;99.90;;;;;;4896638;29;20358;-73
2023/10/17 02:30:36;;;;;;;16.42;10.93;;;4.90;99.90;;;;;;4905929;29;20552;-77
2023/10/17 02:33:16;;;;;;;14.68;9.95;;;6.30;99.90;;;;;;4884790;29;20105;-75
2023/10/17 02:35:57;;;;;;;15.30;9.70;;;4.90;99.90;;;;;;4899985;29;20139;-74
2023/10/17 02:38:23;;;;;;;18.92;12.48;;;4.90;99.90;;;;;;4901268;29;20591;-80
2023/10/17 02:40:54;;;;;;;23.77;13.27;;;6.30;99.90;;;;;;4883324;29;20052;-77
2023/10/17 02:43:19;;;;;;;18.20;12.70;;;5.80;99.90;;;;;;4895417;29;20679;-74
2023/10/17 02:45:45;;;;;;;20.40;14.70;;;5.30;99.90;;;;;;4898996;29;20047;-76
2023/10/17 02:53:56;;;;;;;30.80;20.57;;;5.80;99.90;;;;;;4900067;29;20119;-75
2023/10/17 02:56:23;;;;;;;29.77;16.90;;;5.10;99.90;;;;;;4865638;29;20062;-74
2023/10/17 02:59:06;;;;;;;36.10;17.88;;;5.80;99.90;;;;;;4900064;29;20132;-75
2023/10/17 03:01:37;;;;;;;27.73;17.00;;;5.10;99.90;;;;;;4884002;29;20854;-77
2023/10/17 03:04:13;;;;;;;30.55;17.95;;;5.50;99.90;;;;;;4900008;29;20131;-81
2023/10/17 03:06:43;;;;;;;38.40;20.65;;;5.10;99.90;;;;;;4900466;29;20087;-75
2023/10/17 03:11:51;;;;;;;30.70;18.00;;;5.20;99.90;;;;;;4892322;29;20063;-75
2023/10/17 03:14:22;;;;;;;28.35;16.70;;;5.90;99.90;;;;;;4909532;29;20056;-74
2023/10/17 03:16:55;;;;;;;39.25;20.75;;;6.20;99.90;;;;;;4898180;29;20301;-80
2023/10/17 03:19:25;;;;;;;36.70;20.85;;;5.30;99.90;;;;;;4898212;29;20052;-78
2023/10/17 03:21:55;;;;;;;47.30;22.50;;;5.80;99.90;;;;;;4882620;29;20115;-75
2023/10/17 03:24:38;;;;;;;41.80;21.75;;;6.30;99.90;;;;;;4885379;29;20056;-78
2023/10/17 03:27:04;;;;;;;39.35;22.08;;;8.30;99.90;;;;;;4881993;29;20154;-77
2023/10/17 03:29:35;;;;;;;28.73;18.23;;;5.80;99.90;;;;;;4882441;29;20670;-74
2023/10/17 03:32:05;;;;;;;32.67;18.58;;;5.40;99.90;;;;;;4883065;29;20493;-75
2023/10/17 03:34:37;;;;;;;46.92;21.13;;;5.50;99.90;;;;;;4899186;29;20100;-77
2023/10/17 03:39:52;;;;;;;40.75;19.65;;;6.10;99.90;;;;;;4883292;29;20075;-79
2023/10/17 03:44:58;;;;;;;42.83;23.52;;;5.60;99.90;;;;;;4898597;29;20503;-73
2023/10/17 03:47:24;;;;;;;37.53;20.77;;;5.60;99.90;;;;;;4902954;29;21039;-75
2023/10/17 03:49:55;;;;;;;38.28;21.30;;;5.70;99.90;;;;;;4883048;29;20645;-76
2023/10/17 03:52:22;;;;;;;32.83;19.73;;;5.70;99.90;;;;;;4898648;29;20087;-77
2023/10/17 03:54:47;;;;;;;34.58;21.48;;;6.30;99.90;;;;;;4900319;29;20905;-75
2023/10/17 03:57:16;;;;;;;38.33;22.35;;;5.70;99.90;;;;;;4897039;29;20060;-76
2023/10/17 03:59:43;;;;;;;36.92;21.27;;;5.80;99.90;;;;;;4896991;29;20052;-75
2023/10/17 04:02:22;;;;;;;42.20;22.42;;;8.50;99.90;;;;;;4885418;29;20273;-78
2023/10/17 04:04:57;;;;;;;34.33;19.90;;;4.20;99.90;;;;;;4881374;29;20144;-76
2023/10/17 04:07:27;;;;;;;33.28;21.23;;;5.70;99.90;;;;;;4895761;29;20090;-75
2023/10/17 04:09:55;;;;;;;35.60;19.73;;;5.80;99.90;;;;;;4897340;29;20681;-75
2023/10/17 04:12:23;;;;;;;34.67;20.27;;;6.80;99.90;;;;;;4882668;29;20060;-76
2023/10/17 04:14:58;;;;;;;31.92;19.35;;;5.80;99.90;;;;;;4882005;29;20052;-76
2023/10/17 04:17:29;;;;;;;41.55;21.80;;;5.80;99.90;;;;;;4897886;29;20131;-77
2023/10/17 04:19:58;;;;;;;45.38;22.83;;;5.90;99.90;;;;;;4887809;29;20127;-75
2023/10/17 04:22:29;;;;;;;36.65;20.85;;;6.10;99.90;;;;;;4897611;29;20116;-75
2023/10/17 04:25:00;;;;;;;39.20;22.35;;;5.90;99.90;;;;;;4897946;29;20102;-75
2023/10/17 04:27:32;;;;;;;33.70;18.40;;;5.90;99.90;;;;;;4886727;29;20135;-76
2023/10/17 04:29:58;;;;;;;34.08;20.35;;;7.40;99.90;;;;;;4897691;29;20059;-75
2023/10/17 04:32:33;;;;;;;41.42;21.70;;;6.00;99.90;;;;;;4884694;29;20056;-77
2023/10/17 04:35:02;;;;;;;46.67;23.55;;;6.00;99.90;;;;;;4882352;29;20407;-73
2023/10/17 04:37:37;;;;;;;55.88;25.55;;;6.00;99.90;;;;;;4881052;29;20840;-73
2023/10/17 04:42:56;;;;;;;40.28;20.20;;;6.10;99.90;;;;;;4892057;29;20295;-76
2023/10/17 04:45:27;;;;;;;25.10;17.25;;;7.10;99.90;;;;;;4867696;29;20139;-73
2023/10/17 04:48:11;;;;;;;30.65;18.98;;;7.50;99.90;;;;;;4899670;29;20052;-77
2023/10/17 04:50:45;;;;;;;29.33;19.27;;;7.60;99.90;;;;;;4887949;29;20052;-80
2023/10/17 04:53:27;;;;;;;29.73;19.15;;;7.00;99.90;;;;;;4880099;29;20955;-80
2023/10/17 04:56:11;;;;;;;36.55;20.10;;;6.10;99.90;;;;;;4890569;29;20075;-77
2023/10/17 04:58:49;;;;;;;28.95;15.95;;;6.10;99.90;;;;;;4894649;29;20710;-79
2023/10/17 05:04:02;;;;;;;28.50;18.13;;;6.50;99.90;;;;;;4893376;29;20052;-78
2023/10/17 05:07:07;;;;;;;34.17;19.90;;;6.50;99.90;;;;;;4877805;29;20096;-76
2023/10/17 06:17:48;;;;;;;23.35;13.45;;;6.30;99.90;;;;;;4897842;29;20060;-77
2023/10/17 06:20:19;;;;;;;28.73;16.33;;;6.30;99.90;;;;;;4896374;29;20060;-79
2023/10/17 06:28:34;;;;;;;27.65;16.48;;;6.90;99.90;;;;;;4889101;29;20097;-76
2023/10/17 06:34:00;;;;;;;29.38;15.65;;;6.50;99.90;;;;;;4875370;29;20057;-78
2023/10/17 06:36:30;;;;;;;23.63;14.27;;;8.70;99.90;;;;;;4879123;29;20060;-77
2023/10/17 06:38:56;;;;;;;28.73;16.77;;;7.50;99.90;;;;;;4882111;29;20052;-75
2023/10/17 06:41:27;;;;;;;28.67;16.55;;;8.00;99.90;;;;;;4864310;29;20868;-79
2023/10/17 06:44:08;;;;;;;25.67;13.90;;;7.90;99.90;;;;;;4892011;29;20049;-74
2023/10/17 06:46:48;;;;;;;22.52;13.95;;;6.70;99.90;;;;;;4890100;29;20147;-78
2023/10/17 06:54:49;;;;;;;20.00;12.82;;;6.90;99.90;;;;;;4899455;29;20866;-77
2023/10/17 06:57:23;;;;;;;24.33;15.15;;;8.00;99.90;;;;;;4910605;29;20059;-78
2023/10/17 07:00:01;;;;;;;22.58;15.07;;;7.10;99.90;;;;;;4898661;29;20055;-78
2023/10/17 07:02:30;;;;;;;23.50;13.15;;;7.70;99.90;;;;;;4898777;29;20056;-76
2023/10/17 07:05:00;;;;;;;26.08;15.57;;;7.20;99.90;;;;;;4888094;29;20066;-77
2023/10/17 07:07:39;;;;;;;25.13;13.77;;;7.30;99.90;;;;;;4866646;29;20726;-74
2023/10/17 07:10:37;;;;;;;23.63;13.13;;;9.00;99.90;;;;;;4881727;29;20052;-74
2023/10/17 07:13:41;;;;;;;24.00;14.68;;;7.50;99.90;;;;;;4881943;29;20075;-75
2023/10/17 07:16:16;;;;;;;23.45;13.82;;;7.60;99.90;;;;;;4898049;29;20136;-75
2023/10/17 07:18:46;;;;;;;23.02;13.70;;;8.50;99.90;;;;;;4882431;29;20196;-75
2023/10/17 07:21:17;;;;;;;24.17;13.05;;;7.80;99.90;;;;;;4899009;29;20529;-74
2023/10/17 07:23:45;;;;;;;27.17;14.68;;;7.90;99.90;;;;;;4883044;29;20056;-74
2023/10/17 07:26:18;;;;;;;19.70;14.13;;;8.00;99.90;;;;;;4882204;29;20420;-77
2023/10/17 07:28:45;;;;;;;19.80;13.32;;;8.10;99.90;;;;;;4882402;29;20594;-77
2023/10/17 07:31:11;;;;;;;21.58;13.43;;;8.10;99.90;;;;;;4882315;29;20052;-75
2023/10/17 07:33:43;;;;;;;20.27;12.45;;;8.60;99.90;;;;;;4882565;29;20284;-74
2023/10/17 07:36:15;;;;;;;17.48;12.27;;;8.40;99.90;;;;;;4898553;29;20066;-79
2023/10/17 07:38:43;;;;;;;;;;;8.40;99.90;;;;;;4884167;29;20052;-76
2023/10/17 07:41:13;;;;;;;22.25;12.45;;;8.50;99.90;;;;;;4898602;29;19978;-74
2023/10/17 07:43:46;;;;;;;13.07;10.30;;;8.90;99.90;;;;;;4868312;29;20058;-77
2023/10/17 07:46:19;;;;;;;16.30;10.00;;;8.80;99.90;;;;;;4883761;29;20544;-77
2023/10/17 07:48:50;;;;;;;17.98;9.75;;;8.80;99.90;;;;;;4882440;29;20087;-74
2023/10/17 07:51:16;;;;;;;11.30;9.15;;;8.90;99.90;;;;;;4882706;29;20182;-75
2023/10/17 07:53:45;;;;;;;15.70;8.95;;;8.90;99.90;;;;;;4897971;29;20052;-74
2023/10/17 07:56:20;;;;;;;18.70;8.40;;;9.00;99.90;;;;;;4882451;29;20623;-76
2023/10/17 07:59:04;;;;;;;13.05;7.80;;;9.00;99.90;;;;;;4898988;29;20056;-78
2023/10/17 08:01:44;;;;;;;14.95;8.07;;;9.00;99.90;;;;;;4898268;29;20087;-74
2023/10/17 08:04:53;;;;;;;12.02;5.88;;;9.10;99.90;;;;;;4892738;29;20778;-75
2023/10/17 08:06:59;;;;;;;9.77;5.60;;;9.20;99.90;;;;;;4885501;29;20056;-73
2023/10/17 08:09:35;;;;;;;8.80;5.53;;;9.20;99.90;;;;;;4905988;29;20052;-72
2023/10/17 08:12:05;;;;;;;8.55;5.43;;;9.30;99.90;;;;;;4879157;29;20171;-73
2023/10/17 08:14:41;;;;;;;11.65;5.38;;;9.40;99.90;;;;;;4894778;29;20362;-77
2023/10/17 08:17:14;;;;;;;11.20;4.75;;;9.40;99.90;;;;;;4891894;29;20745;-81
2023/10/17 08:25:25;;;;;;;7.68;4.15;;;9.70;99.90;;;;;;4900037;29;20056;-76
2023/10/17 08:27:54;;;;;;;8.38;3.22;;;9.80;99.90;;;;;;4891976;29;20044;-77
2023/10/17 08:30:25;;;;;;;8.43;4.15;;;9.90;99.90;;;;;;4870418;29;20063;-78
2023/10/17 08:35:37;;;;;;;6.90;3.30;;;9.90;99.90;;;;;;4877774;29;20047;-72
2023/10/17 08:38:39;;;;;;;7.95;3.33;;;9.90;99.90;;;;;;4891707;29;20118;-76
2023/10/17 08:41:07;;;;;;;6.82;3.15;;;10.00;99.90;;;;;;4877959;29;20056;-75
2023/10/17 08:43:36;;;;;;;7.15;2.80;;;10.00;99.90;;;;;;4892555;29;20051;-77
2023/10/17 08:46:10;;;;;;;7.78;2.28;;;10.00;99.90;;;;;;4877072;29;20051;-75
2023/10/17 08:48:43;;;;;;;4.43;2.58;;;9.50;99.90;;;;;;4888140;29;20044;-75
2023/10/17 08:51:18;;;;;;;4.55;2.22;;;10.10;99.90;;;;;;4888115;29;20056;-74
2023/10/17 08:53:54;;;;;;;12.15;2.45;;;10.20;99.90;;;;;;4890500;29;20248;-74
2023/10/17 08:56:27;;;;;;;5.95;2.35;;;10.20;99.90;;;;;;4890729;29;20105;-75
2023/10/17 08:59:03;;;;;;;6.55;2.03;;;10.20;99.90;;;;;;4892789;29;20839;-73
2023/10/17 09:01:31;;;;;;;7.07;2.40;;;10.30;99.90;;;;;;4874989;29;20086;-75
2023/10/17 09:04:04;;;;;;;5.05;2.17;;;10.30;99.90;;;;;;4871088;29;20060;-74
2023/10/17 09:06:37;;;;;;;5.50;2.67;;;10.40;99.90;;;;;;4886625;29;20054;-72
2023/10/17 09:09:20;;;;;;;5.78;1.98;;;10.40;99.90;;;;;;4878252;29;20044;-74
2023/10/17 09:12:01;;;;;;;4.25;1.95;;;10.50;99.90;;;;;;4871890;29;20083;-73
2023/10/17 09:14:35;;;;;;;7.53;2.30;;;10.50;99.90;;;;;;4889891;29;20512;-76
2023/10/17 09:20:11;;;;;;;6.53;1.40;;;10.50;99.90;;;;;;4899934;29;20086;-76
2023/10/17 09:22:40;;;;;;;3.78;1.10;;;10.40;99.90;;;;;;4885934;29;20168;-74
2023/10/17 09:25:25;;;;;;;6.63;1.08;;;10.40;99.90;;;;;;4884293;29;20350;-75
2023/10/17 09:27:56;;;;;;;4.30;2.00;;;10.40;99.90;;;;;;4878404;29;20192;-74
2023/10/17 09:30:26;;;;;;;3.85;1.00;;;10.40;99.90;;;;;;4899977;29;20051;-77
2023/10/17 09:32:56;;;;;;;5.05;0.70;;;10.40;99.90;;;;;;4896126;29;20056;-75
2023/10/17 09:35:30;;;;;;;4.18;0.73;;;10.30;99.90;;;;;;4895582;29;20048;-79
2023/10/17 09:38:01;;;;;;;3.83;1.17;;;10.40;99.90;;;;;;4892335;29;20539;-75
2023/10/17 09:40:33;;;;;;;;;;;11.00;99.90;;;;;;4882289;29;20094;-80
2023/10/17 09:43:03;;;;;;;2.97;0.90;;;10.40;99.90;;;;;;4874591;29;19927;-74
2023/10/17 09:45:35;;;;;;;2.90;1.00;;;10.40;99.90;;;;;;4873341;29;20047;-75
2023/10/17 09:48:05;;;;;;;5.32;1.10;;;10.40;99.90;;;;;;4874114;29;20203;-77
2023/10/17 09:50:37;;;;;;;8.23;1.50;;;10.50;99.90;;;;;;4880131;29;20055;-75
2023/10/17 09:53:16;;;;;;;6.90;0.87;;;10.50;99.90;;;;;;4877885;29;20059;-76
2023/10/17 09:55:55;;;;;;;3.88;1.70;;;10.50;99.90;;;;;;4898248;29;20449;-75
2023/10/17 09:58:37;;;;;;;6.85;1.38;;;10.60;99.90;;;;;;4892915;29;20850;-75
2023/10/17 10:01:20;;;;;;;7.20;0.93;;;10.60;99.90;;;;;;4878054;29;20052;-73
2023/10/17 10:03:48;;;;;;;4.60;0.80;;;10.60;99.90;;;;;;4894564;29;20101;-76
2023/10/17 10:06:31;;;;;;;4.97;0.90;;;10.50;99.90;;;;;;4892360;29;20143;-77
2023/10/17 10:09:13;;;;;;;5.40;0.70;;;10.50;99.90;;;;;;4880409;29;20072;-74
2023/10/17 10:11:56;;;;;;;2.25;0.65;;;10.50;99.90;;;;;;4862298;29;20067;-78
2023/10/17 10:14:33;;;;;;;3.40;0.73;;;10.50;99.90;;;;;;4893983;29;20070;-77
2023/10/17 10:17:06;;;;;;;2.60;0.60;;;10.50;99.90;;;;;;4891538;29;20160;-75
2023/10/17 10:19:42;;;;;;;4.55;0.75;;;10.40;99.90;;;;;;4875790;29;20064;-74
2023/10/17 10:22:15;;;;;;;3.30;0.50;;;10.50;99.90;;;;;;4881296;29;20138;-73
2023/10/17 10:24:45;;;;;;;3.88;0.85;;;10.50;99.90;;;;;;4915708;29;20091;-72
2023/10/17 10:27:27;;;;;;;3.80;0.70;;;10.50;99.90;;;;;;4868767;29;20059;-76
2023/10/17 10:30:33;;;;;;;4.43;0.50;;;10.50;99.90;;;;;;4869530;29;20048;-74
2023/10/17 10:33:01;;;;;;;2.97;0.60;;;10.60;99.90;;;;;;4876218;29;20048;-76
2023/10/17 10:35:33;;;;;;;3.00;1.02;;;10.60;99.90;;;;;;4873524;29;20048;-77
2023/10/17 10:38:03;;;;;;;5.57;1.90;;;10.70;99.90;;;;;;4896438;29;20590;-76
2023/10/17 10:40:32;;;;;;;3.55;0.68;;;10.60;99.90;;;;;;4897907;29;20736;-76
2023/10/17 10:43:11;;;;;;;4.05;0.80;;;10.60;99.90;;;;;;4892891;29;20705;-76
2023/10/17 10:45:50;;;;;;;4.47;0.85;;;10.60;99.90;;;;;;4873892;29;20404;-76
2023/10/17 10:48:18;;;;;;;4.68;0.82;;;10.60;99.90;;;;;;4879867;29;20052;-75
2023/10/17 10:50:48;;;;;;;5.38;0.70;;;10.70;99.90;;;;;;4880635;29;20044;-76
2023/10/17 10:53:31;;;;;;;4.22;0.65;;;10.70;99.90;;;;;;4860036;29;20062;-77
2023/10/17 10:56:11;;;;;;;2.28;0.40;;;10.80;99.90;;;;;;4899029;29;20079;-75
2023/10/17 10:58:55;;;;;;;9.07;0.75;;;10.80;99.90;;;;;;4887256;29;20079;-77
2023/10/17 11:01:27;;;;;;;6.35;0.65;;;10.80;99.90;;;;;;4895502;29;20369;-75
2023/10/17 11:03:54;;;;;;;2.85;0.40;;;10.80;99.90;;;;;;4890394;29;20563;-77
2023/10/17 11:06:25;;;;;;;4.68;1.20;;;10.80;99.90;;;;;;4872094;29;20063;-75
2023/10/17 11:08:56;;;;;;;3.42;0.70;;;10.80;99.90;;;;;;4890233;29;20051;-74
2023/10/17 11:11:25;;;;;;;4.22;0.43;;;12.80;99.90;;;;;;4901650;28;20130;-72
2023/10/17 11:13:56;;;;;;;3.17;0.80;;;10.90;99.90;;;;;;4891968;29;20052;-73
2023/10/17 11:16:26;;;;;;;4.10;0.40;;;10.90;99.90;;;;;;4856726;29;20592;-81
2023/10/17 11:18:57;;;;;;;2.05;0.38;;;10.90;99.90;;;;;;4908599;29;20043;-74
2023/10/17 11:21:25;;;;;;;1.42;0.60;;;10.90;99.90;;;;;;4870864;29;20471;-77
2023/10/17 11:24:02;;;;;;;4.20;0.82;;;10.90;99.90;;;;;;4875291;29;20044;-74
2023/10/17 11:26:39;;;;;;;4.60;0.70;;;10.80;99.90;;;;;;4895286;29;20355;-75
2023/10/17 11:29:07;;;;;;;3.78;0.70;;;10.80;99.90;;;;;;4895825;29;20496;-76
2023/10/17 11:31:34;;;;;;;3.50;0.95;;;10.90;99.90;;;;;;4876554;29;20059;-76
2023/10/17 11:34:07;;;;;;;2.95;0.50;;;10.90;99.90;;;;;;4875680;29;20058;-76
2023/10/17 11:37:03;;;;;;;2.25;0.70;;;10.90;99.90;;;;;;4904442;29;20048;-74
2023/10/17 11:39:42;;;;;;;2.72;0.52;;;11.00;99.90;;;;;;4893072;29;20092;-71
2023/10/17 11:42:08;;;;;;;2.38;0.70;;;11.00;99.90;;;;;;4898445;29;20135;-76
2023/10/17 11:44:42;;;;;;;1.98;0.80;;;11.00;99.90;;;;;;4882819;29;20056;-73
2023/10/17 11:47:22;;;;;;;3.55;0.85;;;11.00;99.90;;;;;;4896959;29;20150;-75
2023/10/17 11:49:49;;;;;;;4.70;0.60;;;11.00;99.90;;;;;;4885012;29;20260;-71
2023/10/17 11:52:15;;;;;;;4.10;0.65;;;11.00;99.90;;;;;;4898234;29;20131;-74
2023/10/17 11:55:14;;;;;;;4.50;1.40;;;11.00;99.90;;;;;;4898601;29;20044;-70
2023/10/17 11:57:40;;;;;;;4.70;1.02;;;8.10;99.90;;;;;;4882186;29;20722;-76
2023/10/17 12:02:43;;;;;;;2.58;0.88;;;11.10;99.90;;;;;;4892966;29;20060;-73
2023/10/17 12:05:20;;;;;;;4.90;1.02;;;11.10;99.90;;;;;;4889819;29;20483;-75
2023/10/17 12:07:53;;;;;;;4.80;1.00;;;11.00;99.90;;;;;;4891735;29;20067;-77
2023/10/17 12:10:20;;;;;;;4.60;0.80;;;11.10;99.90;;;;;;4897912;29;20055;-74
2023/10/17 12:12:46;;;;;;;4.03;1.05;;;11.10;99.90;;;;;;4882664;29;20862;-73
2023/10/17 12:15:20;;;;;;;4.22;1.02;;;10.90;99.90;;;;;;4897992;29;20056;-76
2023/10/17 12:17:48;;;;;;;8.27;1.15;;;11.00;99.90;;;;;;4898049;29;20063;-75
2023/10/17 12:20:16;;;;;;;3.30;1.25;;;11.00;99.90;;;;;;4882082;29;20051;-72
2023/10/17 12:22:42;;;;;;;5.82;1.02;;;11.00;99.90;;;;;;4897578;29;20056;-78
2023/10/17 12:25:10;;;;;;;3.55;0.95;;;11.10;99.90;;;;;;4897965;29;20558;-74
2023/10/17 12:27:39;;;;;;;3.47;0.77;;;11.10;99.90;;;;;;4897970;29;20496;-74
2023/10/17 12:30:08;;;;;;;2.13;0.95;;;11.10;99.90;;;;;;4882070;29;20056;-73
2023/10/17 12:32:35;;;;;;;4.38;0.85;;;11.10;99.90;;;;;;4887703;29;20052;-72
2023/10/17 12:35:00;;;;;;;4.18;0.80;;;11.10;99.90;;;;;;4897653;29;20448;-73
2023/10/17 12:37:26;;;;;;;2.85;0.50;;;12.00;99.90;;;;;;4882177;29;20052;-75
2023/10/17 12:39:52;;;;;;;3.40;0.80;;;11.50;99.90;;;;;;4896851;29;20147;-74
2023/10/17 12:42:19;;;;;;;2.55;0.65;;;11.20;99.90;;;;;;4897154;29;20067;-73
2023/10/17 12:44:44;;;;;;;4.85;0.98;;;11.20;99.90;;;;;;4881327;29;20107;-73
2023/10/17 12:47:11;;;;;;;5.05;0.60;;;11.20;99.90;;;;;;4881175;29;20567;-73
2023/10/17 12:49:39;;;;;;;4.82;0.68;;;11.20;99.90;;;;;;4895136;29;20092;-72
2023/10/17 12:52:05;;;;;;;3.63;0.65;;;11.60;99.90;;;;;;4879682;29;20143;-77
2023/10/17 12:54:32;;;;;;;3.85;0.70;;;11.30;99.90;;;;;;4880628;29;20908;-70
2023/10/17 12:56:58;;;;;;;3.38;0.70;;;11.30;99.90;;;;;;4901437;29;20698;-74
2023/10/17 12:59:23;;;;;;;5.45;0.60;;;11.30;99.90;;;;;;4895459;29;20056;-75
2023/10/17 13:01:51;;;;;;;4.25;0.57;;;10.00;99.90;;;;;;4880284;29;20130;-75
2023/10/17 13:04:19;;;;;;;1.75;0.52;;;11.20;99.90;;;;;;4896598;29;20079;-74
2023/10/17 13:06:46;;;;;;;4.20;0.57;;;11.20;99.90;;;;;;4897050;29;20088;-72
2023/10/17 13:09:11;;;;;;;3.70;0.45;;;11.20;99.90;;;;;;4894233;29;20655;-70
2023/10/17 13:11:37;;;;;;;2.88;0.40;;;11.20;99.90;;;;;;4904748;29;20764;-72
2023/10/17 13:14:05;;;;;;;1.65;0.35;;;11.30;99.90;;;;;;4881126;29;20056;-74
2023/10/17 13:16:32;;;;;;;3.40;0.38;;;11.30;99.90;;;;;;4896942;29;20460;-73
2023/10/17 13:19:05;;;;;;;2.83;0.30;;;11.30;99.90;;;;;;4885927;29;20066;-75
2023/10/17 13:21:36;;;;;;;3.22;0.60;;;11.30;99.90;;;;;;4895999;29;20072;-73
2023/10/17 13:24:03;;;;;;;2.63;0.50;;;11.30;99.90;;;;;;4881003;29;20145;-72
2023/10/17 13:26:32;;;;;;;4.55;0.50;;;12.40;99.90;;;;;;4898661;29;21547;-73
2023/10/17 13:28:57;;;;;;;10.32;0.63;;;11.20;99.90;;;;;;4896309;29;20128;-76
2023/10/17 13:31:23;;;;;;;4.47;0.40;;;11.30;99.90;;;;;;4880279;29;20409;-76
2023/10/17 13:33:49;;;;;;;4.82;0.55;;;11.30;99.90;;;;;;4880183;29;20059;-74
2023/10/17 13:36:20;;;;;;;2.55;0.30;;;11.30;99.90;;;;;;4898964;29;20059;-77
2023/10/17 13:38:45;;;;;;;3.10;0.30;;;11.30;99.90;;;;;;4902519;29;20052;-74
2023/10/17 13:41:15;;;;;;;4.25;0.30;;;11.20;99.90;;;;;;4880250;29;20554;-70
2023/10/17 13:43:42;;;;;;;4.88;0.20;;;11.20;99.90;;;;;;4888792;29;20664;-71
2023/10/17 13:46:12;;;;;;;2.83;0.20;;;11.20;99.90;;;;;;4880788;29;20313;-73
2023/10/17 13:48:50;;;;;;;1.50;0.38;;;11.20;99.90;;;;;;4880454;29;20052;-76
2023/10/17 13:51:18;;;;;;;3.25;0.50;;;11.20;99.90;;;;;;4897143;29;20540;-72
2023/10/17 13:53:47;;;;;;;0.98;0.50;;;11.20;99.90;;;;;;4881110;29;20063;-71
2023/10/17 13:56:15;;;;;;;2.35;0.20;;;11.10;99.90;;;;;;4880478;29;20570;-74
2023/10/17 13:58:41;;;;;;;3.08;0.30;;;11.30;99.90;;;;;;4901702;29;20135;-77
2023/10/17 14:01:32;;;;;;;4.72;0.57;;;11.10;99.90;;;;;;4864437;29;20210;-74
2023/10/17 14:04:02;;;;;;;2.53;0.20;;;11.10;99.90;;;;;;4895498;29;20052;-70
2023/10/17 14:06:34;;;;;;;4.68;0.50;;;11.00;99.90;;;;;;4864884;29;20151;-76
2023/10/17 14:09:00;;;;;;;2.75;0.40;;;11.00;99.90;;;;;;4896944;29;20108;-73
2023/10/17 14:11:26;;;;;;;1.52;0.20;;;11.00;99.90;;;;;;4895396;29;20135;-75
2023/10/17 14:13:54;;;;;;;2.58;0.30;;;11.00;99.90;;;;;;4880444;29;20143;-72
2023/10/17 14:16:22;;;;;;;1.17;0.20;;;11.00;99.90;;;;;;4880403;29;20052;-74
2023/10/17 14:19:02;;;;;;;2.55;0.30;;;11.00;99.90;;;;;;4893915;29;20083;-73
2023/10/17 14:23:57;;;;;;;5.97;0.20;;;10.90;99.90;;;;;;4895850;29;20060;-73
2023/10/17 14:26:29;;;;;;;3.10;0.50;;;10.90;99.90;;;;;;4897235;29;20115;-74
2023/10/17 14:28:56;;;;;;;2.33;0.22;;;10.80;99.90;;;;;;4898379;29;20381;-75
2023/10/17 14:31:26;;;;;;;1.02;0.20;;;10.80;99.90;;;;;;4895237;29;20055;-73
2023/10/17 14:33:55;;;;;;;3.63;0.30;;;10.70;99.90;;;;;;4881874;29;20443;-71
2023/10/17 14:36:21;;;;;;;6.00;0.20;;;10.80;99.90;;;;;;4898598;29;20060;-71
2023/10/17 14:38:48;;;;;;;2.53;0.45;;;10.80;99.90;;;;;;4898812;29;20043;-71
2023/10/17 14:41:14;;;;;;;5.20;0.30;;;10.70;99.90;;;;;;4898454;29;20051;-75
2023/10/17 14:43:43;;;;;;;3.33;0.30;;;10.60;99.90;;;;;;4898579;29;20577;-73
2023/10/17 14:46:14;;;;;;;2.90;0.30;;;10.60;99.90;;;;;;4895634;29;20063;-74
2023/10/17 14:48:40;;;;;;;3.25;0.50;;;10.60;99.90;;;;;;4882861;29;20052;-73
2023/10/17 14:51:07;;;;;;;7.45;0.30;;;10.50;99.90;;;;;;4882537;29;20215;-74
2023/10/17 14:53:33;;;;;;;7.78;0.55;;;10.60;99.90;;;;;;4898255;29;20055;-72
2023/10/17 14:55:59;;;;;;;3.85;0.70;;;10.40;99.90;;;;;;4882728;29;20199;-75
2023/10/17 14:58:25;;;;;;;2.90;0.38;;;10.40;99.90;;;;;;4897501;29;20068;-73
2023/10/17 15:00:55;;;;;;;2.50;0.30;;;10.40;99.90;;;;;;4881900;29;20052;-73
2023/10/17 15:03:21;;;;;;;1.27;0.22;;;10.50;99.90;;;;;;4882621;29;20531;-72
2023/10/17 15:05:49;;;;;;;2.10;0.35;;;10.30;99.90;;;;;;4882916;29;20123;-76
2023/10/17 15:08:15;;;;;;;1.52;0.30;;;10.30;99.90;;;;;;4541582;29;10000038;-74